sensor_id;sensor_type;location;lat;lon;timestamp;P1;durP1;ratioP1;P2;durP2;ratioP2
17384;SDS011;8810;48.680;8.894;2022-11-20T00:01:15;10.17;;;4.90;;
17384;SDS011;8810;48.680;8.894;2022-11-20T00:03:44;7.90;;;4.10;;
17384;SDS011;8810;48.680;8.894;2022-11-20T00:06:12;9.03;;;4.60;;
17384;SDS011;8810;48.680;8.894;2022-11-20T00:08:40;6.77;;;3.97;;
17384;SDS011;8810;48.680;8.894;2022-11-20T00:11:08;7.80;;;3.97;;
17384;SDS011;8810;48.680;8.894;2022-11-20T00:13:38;5.67;;;3.10;;
17384;SDS011;8810;48.680;8.894;2022-11-20T00:16:06;4.93;;;3.30;;
17384;SDS011;8810;48.680;8.894;2022-11-20T00:18:35;6.33;;;3.30;;
17384;SDS011;8810;48.680;8.894;2022-11-20T00:21:02;7.47;;;4.10;;
17384;SDS011;8810;48.680;8.894;2022-11-20T00:23:30;8.07;;;4.17;;
17384;SDS011;8810;48.680;8.894;2022-11-20T00:26:00;7.03;;;4.33;;
17384;SDS011;8810;48.680;8.894;2022-11-20T00:28:28;8.90;;;4.77;;
17384;SDS011;8810;48.680;8.894;2022-11-20T00:31:01;8.97;;;5.17;;
17384;SDS011;8810;48.680;8.894;2022-11-20T00:33:29;8.83;;;4.57;;
17384;SDS011;8810;48.680;8.894;2022-11-20T00:35:59;14.33;;;5.47;;
17384;SDS011;8810;48.680;8.894;2022-11-20T00:38:26;8.03;;;4.97;;
17384;SDS011;8810;48.680;8.894;2022-11-20T00:40:54;8.27;;;4.83;;
17384;SDS011;8810;48.680;8.894;2022-11-20T00:43:22;8.27;;;4.63;;
17384;SDS011;8810;48.680;8.894;2022-11-20T00:45:49;11.10;;;4.87;;
17384;SDS011;8810;48.680;8.894;2022-11-20T00:48:17;11.47;;;4.83;;
17384;SDS011;8810;48.680;8.894;2022-11-20T00:50:44;7.67;;;4.03;;
17384;SDS011;8810;48.680;8.894;2022-11-20T00:53:11;7.93;;;4.57;;
17384;SDS011;8810;48.680;8.894;2022-11-20T00:55:37;7.67;;;4.30;;
17384;SDS011;8810;48.680;8.894;2022-11-20T00:58:04;9.10;;;4.53;;
17384;SDS011;8810;48.680;8.894;2022-11-20T01:00:31;7.83;;;4.77;;
17384;SDS011;8810;48.680;8.894;2022-11-20T01:02:58;9.30;;;4.87;;
17384;SDS011;8810;48.680;8.894;2022-11-20T01:05:26;8.93;;;4.80;;
17384;SDS011;8810;48.680;8.894;2022-11-20T01:07:53;8.10;;;4.73;;
17384;SDS011;8810;48.680;8.894;2022-11-20T01:10:20;12.50;;;5.20;;
17384;SDS011;8810;48.680;8.894;2022-11-20T01:12:47;10.27;;;5.47;;
17384;SDS011;8810;48.680;8.894;2022-11-20T01:15:33;8.77;;;4.83;;
17384;SDS011;8810;48.680;8.894;2022-11-20T01:18:01;9.20;;;4.80;;
17384;SDS011;8810;48.680;8.894;2022-11-20T01:20:29;8.30;;;4.77;;
17384;SDS011;8810;48.680;8.894;2022-11-20T01:22:59;8.40;;;4.57;;
17384;SDS011;8810;48.680;8.894;2022-11-20T01:25:26;6.57;;;4.10;;
17384;SDS011;8810;48.680;8.894;2022-11-20T01:27:53;8.17;;;4.23;;
17384;SDS011;8810;48.680;8.894;2022-11-20T01:30:20;7.40;;;4.03;;
17384;SDS011;8810;48.680;8.894;2022-11-20T01:32:46;7.93;;;3.93;;
17384;SDS011;8810;48.680;8.894;2022-11-20T01:35:13;8.63;;;3.80;;
17384;SDS011;8810;48.680;8.894;2022-11-20T01:37:41;8.03;;;3.77;;
17384;SDS011;8810;48.680;8.894;2022-11-20T01:40:09;6.43;;;3.43;;
17384;SDS011;8810;48.680;8.894;2022-11-20T01:42:37;6.80;;;3.50;;
17384;SDS011;8810;48.680;8.894;2022-11-20T01:48:25;6.47;;;3.20;;
17384;SDS011;8810;48.680;8.894;2022-11-20T01:50:56;6.33;;;3.67;;
17384;SDS011;8810;48.680;8.894;2022-11-20T01:53:27;5.53;;;3.00;;
17384;SDS011;8810;48.680;8.894;2022-11-20T01:55:57;6.43;;;3.17;;
17384;SDS011;8810;48.680;8.894;2022-11-20T01:58:28;5.90;;;3.30;;
17384;SDS011;8810;48.680;8.894;2022-11-20T02:00:59;4.93;;;3.20;;
17384;SDS011;8810;48.680;8.894;2022-11-20T02:03:26;5.17;;;3.10;;
17384;SDS011;8810;48.680;8.894;2022-11-20T02:05:54;4.93;;;2.60;;
17384;SDS011;8810;48.680;8.894;2022-11-20T02:08:28;4.10;;;2.50;;
17384;SDS011;8810;48.680;8.894;2022-11-20T02:10:56;5.40;;;2.93;;
17384;SDS011;8810;48.680;8.894;2022-11-20T02:13:23;7.20;;;2.93;;
17384;SDS011;8810;48.680;8.894;2022-11-20T02:16:08;5.37;;;2.53;;
17384;SDS011;8810;48.680;8.894;2022-11-20T02:18:37;6.03;;;2.70;;
17384;SDS011;8810;48.680;8.894;2022-11-20T02:21:06;4.17;;;2.73;;
17384;SDS011;8810;48.680;8.894;2022-11-20T02:23:38;4.63;;;2.70;;
17384;SDS011;8810;48.680;8.894;2022-11-20T02:26:11;5.40;;;2.30;;
17384;SDS011;8810;48.680;8.894;2022-11-20T02:28:40;5.33;;;2.67;;
17384;SDS011;8810;48.680;8.894;2022-11-20T02:31:07;6.57;;;3.03;;
17384;SDS011;8810;48.680;8.894;2022-11-20T02:33:34;4.80;;;2.33;;
17384;SDS011;8810;48.680;8.894;2022-11-20T02:36:01;6.07;;;3.30;;
17384;SDS011;8810;48.680;8.894;2022-11-20T02:38:27;9.67;;;4.30;;
17384;SDS011;8810;48.680;8.894;2022-11-20T02:40:54;7.57;;;4.30;;
17384;SDS011;8810;48.680;8.894;2022-11-20T02:43:22;6.73;;;3.70;;
17384;SDS011;8810;48.680;8.894;2022-11-20T02:45:49;6.20;;;4.13;;
17384;SDS011;8810;48.680;8.894;2022-11-20T02:48:16;9.10;;;4.77;;
17384;SDS011;8810;48.680;8.894;2022-11-20T02:50:43;6.23;;;4.30;;
17384;SDS011;8810;48.680;8.894;2022-11-20T02:53:10;6.40;;;3.27;;
17384;SDS011;8810;48.680;8.894;2022-11-20T02:55:37;5.17;;;3.10;;
17384;SDS011;8810;48.680;8.894;2022-11-20T02:58:03;7.80;;;3.40;;
17384;SDS011;8810;48.680;8.894;2022-11-20T03:00:32;5.50;;;3.23;;
17384;SDS011;8810;48.680;8.894;2022-11-20T03:02:59;5.33;;;3.40;;
17384;SDS011;8810;48.680;8.894;2022-11-20T03:05:25;5.83;;;3.00;;
17384;SDS011;8810;48.680;8.894;2022-11-20T03:07:52;5.03;;;3.07;;
17384;SDS011;8810;48.680;8.894;2022-11-20T03:10:19;4.17;;;2.80;;
17384;SDS011;8810;48.680;8.894;2022-11-20T03:12:46;5.10;;;3.10;;
17384;SDS011;8810;48.680;8.894;2022-11-20T03:15:12;5.33;;;3.33;;
17384;SDS011;8810;48.680;8.894;2022-11-20T03:17:41;3.77;;;2.80;;
17384;SDS011;8810;48.680;8.894;2022-11-20T03:20:08;5.53;;;3.30;;
17384;SDS011;8810;48.680;8.894;2022-11-20T03:22:36;4.27;;;2.97;;
17384;SDS011;8810;48.680;8.894;2022-11-20T03:25:03;7.93;;;3.30;;
17384;SDS011;8810;48.680;8.894;2022-11-20T03:27:31;5.33;;;3.43;;
17384;SDS011;8810;48.680;8.894;2022-11-20T03:29:59;3.53;;;2.57;;
17384;SDS011;8810;48.680;8.894;2022-11-20T03:32:26;4.97;;;3.07;;
17384;SDS011;8810;48.680;8.894;2022-11-20T03:34:54;4.97;;;3.27;;
17384;SDS011;8810;48.680;8.894;2022-11-20T03:37:21;5.60;;;3.47;;
17384;SDS011;8810;48.680;8.894;2022-11-20T03:39:48;6.90;;;3.23;;
17384;SDS011;8810;48.680;8.894;2022-11-20T03:42:14;6.30;;;3.37;;
17384;SDS011;8810;48.680;8.894;2022-11-20T03:44:55;5.67;;;3.00;;
17384;SDS011;8810;48.680;8.894;2022-11-20T03:47:22;5.27;;;3.00;;
17384;SDS011;8810;48.680;8.894;2022-11-20T03:49:49;4.50;;;2.83;;
17384;SDS011;8810;48.680;8.894;2022-11-20T03:52:17;4.57;;;2.70;;
17384;SDS011;8810;48.680;8.894;2022-11-20T03:54:44;5.03;;;3.20;;
17384;SDS011;8810;48.680;8.894;2022-11-20T03:57:11;4.70;;;3.03;;
17384;SDS011;8810;48.680;8.894;2022-11-20T03:59:38;5.20;;;3.47;;
17384;SDS011;8810;48.680;8.894;2022-11-20T04:02:04;5.57;;;3.47;;
17384;SDS011;8810;48.680;8.894;2022-11-20T04:04:31;5.60;;;3.60;;
17384;SDS011;8810;48.680;8.894;2022-11-20T04:06:58;6.70;;;3.47;;
17384;SDS011;8810;48.680;8.894;2022-11-20T04:09:26;5.23;;;3.47;;
17384;SDS011;8810;48.680;8.894;2022-11-20T04:11:53;8.17;;;3.20;;
17384;SDS011;8810;48.680;8.894;2022-11-20T04:14:20;5.33;;;3.50;;
17384;SDS011;8810;48.680;8.894;2022-11-20T04:16:47;4.80;;;3.20;;
17384;SDS011;8810;48.680;8.894;2022-11-20T04:19:14;6.23;;;3.27;;
17384;SDS011;8810;48.680;8.894;2022-11-20T04:21:43;7.23;;;3.57;;
17384;SDS011;8810;48.680;8.894;2022-11-20T04:24:10;8.03;;;3.47;;
17384;SDS011;8810;48.680;8.894;2022-11-20T04:26:39;6.07;;;3.43;;
17384;SDS011;8810;48.680;8.894;2022-11-20T04:29:06;5.40;;;3.17;;
17384;SDS011;8810;48.680;8.894;2022-11-20T04:31:36;6.83;;;4.07;;
17384;SDS011;8810;48.680;8.894;2022-11-20T04:34:05;5.20;;;3.57;;
17384;SDS011;8810;48.680;8.894;2022-11-20T04:36:33;8.37;;;4.10;;
17384;SDS011;8810;48.680;8.894;2022-11-20T04:39:01;6.53;;;3.77;;
17384;SDS011;8810;48.680;8.894;2022-11-20T04:41:30;6.57;;;3.80;;
17384;SDS011;8810;48.680;8.894;2022-11-20T04:44:00;6.07;;;4.10;;
17384;SDS011;8810;48.680;8.894;2022-11-20T04:46:29;10.47;;;4.13;;
17384;SDS011;8810;48.680;8.894;2022-11-20T04:48:57;6.03;;;3.97;;
17384;SDS011;8810;48.680;8.894;2022-11-20T04:51:24;6.37;;;3.87;;
17384;SDS011;8810;48.680;8.894;2022-11-20T04:53:51;7.47;;;3.70;;
17384;SDS011;8810;48.680;8.894;2022-11-20T04:56:18;7.50;;;3.60;;
17384;SDS011;8810;48.680;8.894;2022-11-20T04:58:45;5.30;;;3.20;;
17384;SDS011;8810;48.680;8.894;2022-11-20T05:01:14;6.17;;;3.73;;
17384;SDS011;8810;48.680;8.894;2022-11-20T05:03:43;5.83;;;3.50;;
17384;SDS011;8810;48.680;8.894;2022-11-20T05:06:11;5.07;;;3.20;;
17384;SDS011;8810;48.680;8.894;2022-11-20T05:08:39;5.20;;;3.63;;
17384;SDS011;8810;48.680;8.894;2022-11-20T05:11:07;6.00;;;4.00;;
17384;SDS011;8810;48.680;8.894;2022-11-20T05:13:35;4.27;;;2.80;;
17384;SDS011;8810;48.680;8.894;2022-11-20T05:16:03;5.30;;;3.20;;
17384;SDS011;8810;48.680;8.894;2022-11-20T05:18:32;4.23;;;3.00;;
17384;SDS011;8810;48.680;8.894;2022-11-20T05:20:59;4.10;;;2.80;;
17384;SDS011;8810;48.680;8.894;2022-11-20T05:23:27;6.20;;;3.63;;
17384;SDS011;8810;48.680;8.894;2022-11-20T05:25:55;8.05;;;3.33;;
17384;SDS011;8810;48.680;8.894;2022-11-20T05:28:23;4.93;;;3.30;;
17384;SDS011;8810;48.680;8.894;2022-11-20T05:30:50;4.90;;;3.13;;
17384;SDS011;8810;48.680;8.894;2022-11-20T05:33:17;4.53;;;2.93;;
17384;SDS011;8810;48.680;8.894;2022-11-20T05:35:46;4.10;;;2.93;;
17384;SDS011;8810;48.680;8.894;2022-11-20T05:38:13;4.17;;;2.83;;
17384;SDS011;8810;48.680;8.894;2022-11-20T05:40:40;4.30;;;2.80;;
17384;SDS011;8810;48.680;8.894;2022-11-20T05:43:08;3.97;;;2.80;;
17384;SDS011;8810;48.680;8.894;2022-11-20T05:45:35;3.80;;;2.83;;
17384;SDS011;8810;48.680;8.894;2022-11-20T05:48:02;3.70;;;2.50;;
17384;SDS011;8810;48.680;8.894;2022-11-20T05:50:28;5.70;;;2.80;;
17384;SDS011;8810;48.680;8.894;2022-11-20T05:52:58;4.47;;;2.90;;
17384;SDS011;8810;48.680;8.894;2022-11-20T05:55:25;6.33;;;3.93;;
17384;SDS011;8810;48.680;8.894;2022-11-20T05:57:53;4.43;;;2.30;;
17384;SDS011;8810;48.680;8.894;2022-11-20T06:00:20;2.87;;;1.80;;
17384;SDS011;8810;48.680;8.894;2022-11-20T06:02:47;3.03;;;1.50;;
17384;SDS011;8810;48.680;8.894;2022-11-20T06:05:13;5.90;;;1.90;;
17384;SDS011;8810;48.680;8.894;2022-11-20T06:07:40;2.27;;;1.37;;
17384;SDS011;8810;48.680;8.894;2022-11-20T06:10:09;2.13;;;1.20;;
17384;SDS011;8810;48.680;8.894;2022-11-20T06:12:36;3.37;;;1.50;;
17384;SDS011;8810;48.680;8.894;2022-11-20T06:15:04;3.60;;;2.17;;
17384;SDS011;8810;48.680;8.894;2022-11-20T06:17:32;2.33;;;1.50;;
17384;SDS011;8810;48.680;8.894;2022-11-20T06:19:58;2.00;;;1.40;;
17384;SDS011;8810;48.680;8.894;2022-11-20T06:22:25;1.93;;;1.40;;
17384;SDS011;8810;48.680;8.894;2022-11-20T06:24:52;2.50;;;1.50;;
17384;SDS011;8810;48.680;8.894;2022-11-20T06:27:20;2.67;;;1.60;;
17384;SDS011;8810;48.680;8.894;2022-11-20T06:29:47;2.23;;;1.13;;
17384;SDS011;8810;48.680;8.894;2022-11-20T06:32:14;2.33;;;1.60;;
17384;SDS011;8810;48.680;8.894;2022-11-20T06:34:40;2.23;;;1.50;;
17384;SDS011;8810;48.680;8.894;2022-11-20T06:37:07;2.07;;;1.40;;
17384;SDS011;8810;48.680;8.894;2022-11-20T06:39:34;5.33;;;1.63;;
17384;SDS011;8810;48.680;8.894;2022-11-20T06:42:01;3.53;;;1.70;;
17384;SDS011;8810;48.680;8.894;2022-11-20T06:44:29;2.03;;;1.47;;
17384;SDS011;8810;48.680;8.894;2022-11-20T06:46:56;3.37;;;1.50;;
17384;SDS011;8810;48.680;8.894;2022-11-20T06:49:23;2.70;;;1.40;;
17384;SDS011;8810;48.680;8.894;2022-11-20T06:51:50;4.20;;;1.60;;
17384;SDS011;8810;48.680;8.894;2022-11-20T06:54:17;1.97;;;1.40;;
17384;SDS011;8810;48.680;8.894;2022-11-20T06:56:45;2.57;;;1.53;;
17384;SDS011;8810;48.680;8.894;2022-11-20T06:59:12;2.93;;;1.50;;
17384;SDS011;8810;48.680;8.894;2022-11-20T07:01:41;4.00;;;1.50;;
17384;SDS011;8810;48.680;8.894;2022-11-20T07:04:07;4.97;;;2.00;;
17384;SDS011;8810;48.680;8.894;2022-11-20T07:06:34;2.63;;;1.37;;
17384;SDS011;8810;48.680;8.894;2022-11-20T07:09:01;4.53;;;2.20;;
17384;SDS011;8810;48.680;8.894;2022-11-20T07:11:28;2.27;;;1.43;;
17384;SDS011;8810;48.680;8.894;2022-11-20T07:13:55;1.77;;;1.40;;
17384;SDS011;8810;48.680;8.894;2022-11-20T07:16:23;2.50;;;1.60;;
17384;SDS011;8810;48.680;8.894;2022-11-20T07:18:51;1.50;;;1.27;;
17384;SDS011;8810;48.680;8.894;2022-11-20T07:21:18;2.43;;;1.50;;
17384;SDS011;8810;48.680;8.894;2022-11-20T07:23:44;1.87;;;1.30;;
17384;SDS011;8810;48.680;8.894;2022-11-20T07:26:11;2.27;;;1.20;;
17384;SDS011;8810;48.680;8.894;2022-11-20T07:28:38;1.50;;;1.20;;
17384;SDS011;8810;48.680;8.894;2022-11-20T07:31:05;2.10;;;1.40;;
17384;SDS011;8810;48.680;8.894;2022-11-20T07:33:32;2.80;;;1.40;;
17384;SDS011;8810;48.680;8.894;2022-11-20T07:36:01;1.20;;;1.10;;
17384;SDS011;8810;48.680;8.894;2022-11-20T07:38:28;1.77;;;1.27;;
17384;SDS011;8810;48.680;8.894;2022-11-20T07:40:55;1.90;;;1.40;;
17384;SDS011;8810;48.680;8.894;2022-11-20T07:43:22;2.23;;;1.60;;
17384;SDS011;8810;48.680;8.894;2022-11-20T07:45:50;2.73;;;1.50;;
17384;SDS011;8810;48.680;8.894;2022-11-20T07:48:17;4.53;;;1.60;;
17384;SDS011;8810;48.680;8.894;2022-11-20T07:50:43;3.13;;;1.47;;
17384;SDS011;8810;48.680;8.894;2022-11-20T07:53:12;2.40;;;1.20;;
17384;SDS011;8810;48.680;8.894;2022-11-20T07:55:38;1.63;;;1.27;;
17384;SDS011;8810;48.680;8.894;2022-11-20T07:58:06;2.63;;;1.50;;
17384;SDS011;8810;48.680;8.894;2022-11-20T08:00:32;3.07;;;1.93;;
17384;SDS011;8810;48.680;8.894;2022-11-20T08:03:02;2.40;;;1.70;;
17384;SDS011;8810;48.680;8.894;2022-11-20T08:05:29;2.63;;;1.50;;
17384;SDS011;8810;48.680;8.894;2022-11-20T08:07:56;2.73;;;1.70;;
17384;SDS011;8810;48.680;8.894;2022-11-20T08:10:24;3.40;;;1.90;;
17384;SDS011;8810;48.680;8.894;2022-11-20T08:12:51;3.13;;;1.60;;
17384;SDS011;8810;48.680;8.894;2022-11-20T08:15:36;2.43;;;1.47;;
17384;SDS011;8810;48.680;8.894;2022-11-20T08:18:06;1.77;;;1.40;;
17384;SDS011;8810;48.680;8.894;2022-11-20T08:20:34;3.30;;;1.60;;
17384;SDS011;8810;48.680;8.894;2022-11-20T08:23:02;3.23;;;1.40;;
17384;SDS011;8810;48.680;8.894;2022-11-20T08:25:32;3.40;;;1.60;;
17384;SDS011;8810;48.680;8.894;2022-11-20T08:28:00;2.70;;;1.57;;
17384;SDS011;8810;48.680;8.894;2022-11-20T08:30:28;2.57;;;1.37;;
17384;SDS011;8810;48.680;8.894;2022-11-20T08:33:00;2.37;;;1.43;;
17384;SDS011;8810;48.680;8.894;2022-11-20T08:35:27;2.10;;;1.30;;
17384;SDS011;8810;48.680;8.894;2022-11-20T08:37:54;3.30;;;1.50;;
17384;SDS011;8810;48.680;8.894;2022-11-20T08:40:21;1.90;;;1.37;;
17384;SDS011;8810;48.680;8.894;2022-11-20T08:42:49;1.83;;;1.10;;
17384;SDS011;8810;48.680;8.894;2022-11-20T08:45:17;2.83;;;1.13;;
17384;SDS011;8810;48.680;8.894;2022-11-20T08:47:45;0.73;;;0.63;;
17384;SDS011;8810;48.680;8.894;2022-11-20T08:50:13;0.80;;;0.70;;
17384;SDS011;8810;48.680;8.894;2022-11-20T08:52:41;1.87;;;0.80;;
17384;SDS011;8810;48.680;8.894;2022-11-20T08:55:08;0.93;;;0.70;;
17384;SDS011;8810;48.680;8.894;2022-11-20T08:57:35;0.83;;;0.60;;
17384;SDS011;8810;48.680;8.894;2022-11-20T09:00:05;0.93;;;0.50;;
17384;SDS011;8810;48.680;8.894;2022-11-20T09:02:33;0.73;;;0.53;;
17384;SDS011;8810;48.680;8.894;2022-11-20T09:05:00;1.53;;;0.70;;
17384;SDS011;8810;48.680;8.894;2022-11-20T09:07:28;0.50;;;0.50;;
17384;SDS011;8810;48.680;8.894;2022-11-20T09:09:55;0.60;;;0.50;;
17384;SDS011;8810;48.680;8.894;2022-11-20T09:12:22;0.67;;;0.60;;
17384;SDS011;8810;48.680;8.894;2022-11-20T09:14:49;0.93;;;0.50;;
17384;SDS011;8810;48.680;8.894;2022-11-20T09:17:17;0.50;;;0.50;;
17384;SDS011;8810;48.680;8.894;2022-11-20T09:19:45;0.80;;;0.60;;
17384;SDS011;8810;48.680;8.894;2022-11-20T09:22:12;0.80;;;0.80;;
17384;SDS011;8810;48.680;8.894;2022-11-20T09:24:39;0.63;;;0.50;;
17384;SDS011;8810;48.680;8.894;2022-11-20T09:27:07;0.80;;;0.67;;
17384;SDS011;8810;48.680;8.894;2022-11-20T09:29:34;0.80;;;0.50;;
17384;SDS011;8810;48.680;8.894;2022-11-20T09:32:01;0.97;;;0.50;;
17384;SDS011;8810;48.680;8.894;2022-11-20T09:34:29;0.83;;;0.43;;
17384;SDS011;8810;48.680;8.894;2022-11-20T09:36:56;0.50;;;0.50;;
17384;SDS011;8810;48.680;8.894;2022-11-20T09:39:23;1.00;;;0.47;;
17384;SDS011;8810;48.680;8.894;2022-11-20T09:44:51;0.93;;;0.60;;
17384;SDS011;8810;48.680;8.894;2022-11-20T09:47:34;1.13;;;0.70;;
17384;SDS011;8810;48.680;8.894;2022-11-20T09:50:18;1.47;;;0.80;;
17384;SDS011;8810;48.680;8.894;2022-11-20T09:52:55;1.00;;;0.80;;
17384;SDS011;8810;48.680;8.894;2022-11-20T09:55:30;0.80;;;0.80;;
17384;SDS011;8810;48.680;8.894;2022-11-20T09:57:57;3.03;;;0.80;;
17384;SDS011;8810;48.680;8.894;2022-11-20T10:00:26;0.60;;;0.50;;
17384;SDS011;8810;48.680;8.894;2022-11-20T10:02:55;0.87;;;0.67;;
17384;SDS011;8810;48.680;8.894;2022-11-20T10:05:27;1.30;;;0.60;;
17384;SDS011;8810;48.680;8.894;2022-11-20T10:07:59;2.20;;;0.80;;
17384;SDS011;8810;48.680;8.894;2022-11-20T10:10:38;0.90;;;0.63;;
17384;SDS011;8810;48.680;8.894;2022-11-20T10:13:14;0.83;;;0.53;;
17384;SDS011;8810;48.680;8.894;2022-11-20T10:15:53;0.63;;;0.60;;
17384;SDS011;8810;48.680;8.894;2022-11-20T10:18:29;1.40;;;0.90;;
17384;SDS011;8810;48.680;8.894;2022-11-20T10:21:09;0.70;;;0.60;;
17384;SDS011;8810;48.680;8.894;2022-11-20T10:23:50;0.80;;;0.60;;
17384;SDS011;8810;48.680;8.894;2022-11-20T10:26:38;1.40;;;0.53;;
17384;SDS011;8810;48.680;8.894;2022-11-20T10:29:15;0.70;;;0.60;;
17384;SDS011;8810;48.680;8.894;2022-11-20T10:31:44;0.60;;;0.50;;
17384;SDS011;8810;48.680;8.894;2022-11-20T10:34:18;3.57;;;1.10;;
17384;SDS011;8810;48.680;8.894;2022-11-20T10:36:50;0.80;;;0.77;;
17384;SDS011;8810;48.680;8.894;2022-11-20T10:39:23;0.87;;;0.80;;
17384;SDS011;8810;48.680;8.894;2022-11-20T10:41:57;1.23;;;1.00;;
17384;SDS011;8810;48.680;8.894;2022-11-20T10:44:26;1.60;;;0.90;;
17384;SDS011;8810;48.680;8.894;2022-11-20T10:47:12;1.70;;;1.30;;
17384;SDS011;8810;48.680;8.894;2022-11-20T10:49:40;2.13;;;1.33;;
17384;SDS011;8810;48.680;8.894;2022-11-20T10:52:13;1.07;;;0.80;;
17384;SDS011;8810;48.680;8.894;2022-11-20T10:54:52;2.70;;;1.20;;
17384;SDS011;8810;48.680;8.894;2022-11-20T10:57:27;1.90;;;1.20;;
17384;SDS011;8810;48.680;8.894;2022-11-20T11:00:08;3.47;;;1.33;;
17384;SDS011;8810;48.680;8.894;2022-11-20T11:02:39;1.60;;;0.87;;
17384;SDS011;8810;48.680;8.894;2022-11-20T11:05:29;1.47;;;1.07;;
17384;SDS011;8810;48.680;8.894;2022-11-20T11:08:04;1.97;;;1.10;;
17384;SDS011;8810;48.680;8.894;2022-11-20T11:10:39;2.97;;;1.00;;
17384;SDS011;8810;48.680;8.894;2022-11-20T11:13:18;2.93;;;1.20;;
17384;SDS011;8810;48.680;8.894;2022-11-20T11:15:46;5.10;;;1.40;;
17384;SDS011;8810;48.680;8.894;2022-11-20T11:18:22;4.90;;;1.40;;
17384;SDS011;8810;48.680;8.894;2022-11-20T11:20:50;5.10;;;1.20;;
17384;SDS011;8810;48.680;8.894;2022-11-20T11:23:26;2.00;;;1.20;;
17384;SDS011;8810;48.680;8.894;2022-11-20T11:25:57;2.90;;;1.30;;
17384;SDS011;8810;48.680;8.894;2022-11-20T11:28:25;2.17;;;0.97;;
17384;SDS011;8810;48.680;8.894;2022-11-20T11:30:53;2.50;;;1.10;;
17384;SDS011;8810;48.680;8.894;2022-11-20T11:33:21;3.83;;;1.00;;
17384;SDS011;8810;48.680;8.894;2022-11-20T11:35:49;1.90;;;0.93;;
17384;SDS011;8810;48.680;8.894;2022-11-20T11:38:19;2.90;;;0.90;;
17384;SDS011;8810;48.680;8.894;2022-11-20T11:40:54;1.57;;;0.70;;
17384;SDS011;8810;48.680;8.894;2022-11-20T11:43:22;0.53;;;0.43;;
17384;SDS011;8810;48.680;8.894;2022-11-20T11:49:11;2.23;;;0.90;;
17384;SDS011;8810;48.680;8.894;2022-11-20T11:51:46;1.80;;;0.70;;
17384;SDS011;8810;48.680;8.894;2022-11-20T11:54:23;2.40;;;0.77;;
17384;SDS011;8810;48.680;8.894;2022-11-20T11:56:55;1.73;;;0.60;;
17384;SDS011;8810;48.680;8.894;2022-11-20T11:59:27;1.63;;;0.70;;
17384;SDS011;8810;48.680;8.894;2022-11-20T12:02:03;2.00;;;0.60;;
17384;SDS011;8810;48.680;8.894;2022-11-20T12:04:46;3.03;;;0.60;;
17384;SDS011;8810;48.680;8.894;2022-11-20T12:07:27;2.13;;;0.73;;
17384;SDS011;8810;48.680;8.894;2022-11-20T12:10:04;0.83;;;0.60;;
17384;SDS011;8810;48.680;8.894;2022-11-20T12:12:40;2.50;;;0.60;;
17384;SDS011;8810;48.680;8.894;2022-11-20T12:15:11;2.33;;;1.00;;
17384;SDS011;8810;48.680;8.894;2022-11-20T12:17:42;2.97;;;0.90;;
17384;SDS011;8810;48.680;8.894;2022-11-20T12:20:11;1.17;;;0.70;;
17384;SDS011;8810;48.680;8.894;2022-11-20T12:22:41;1.33;;;0.80;;
17384;SDS011;8810;48.680;8.894;2022-11-20T12:25:17;2.57;;;1.00;;
17384;SDS011;8810;48.680;8.894;2022-11-20T12:30:58;2.20;;;0.60;;
17384;SDS011;8810;48.680;8.894;2022-11-20T12:33:40;1.40;;;0.60;;
17384;SDS011;8810;48.680;8.894;2022-11-20T12:36:19;2.97;;;0.80;;
17384;SDS011;8810;48.680;8.894;2022-11-20T12:39:05;2.93;;;0.80;;
17384;SDS011;8810;48.680;8.894;2022-11-20T12:41:46;2.60;;;0.73;;
17384;SDS011;8810;48.680;8.894;2022-11-20T12:44:43;1.10;;;0.50;;
17384;SDS011;8810;48.680;8.894;2022-11-20T12:47:37;1.50;;;0.70;;
17384;SDS011;8810;48.680;8.894;2022-11-20T12:50:17;3.63;;;0.90;;
17384;SDS011;8810;48.680;8.894;2022-11-20T12:52:56;4.00;;;1.60;;
17384;SDS011;8810;48.680;8.894;2022-11-20T12:55:36;1.77;;;0.97;;
17384;SDS011;8810;48.680;8.894;2022-11-20T12:58:12;2.77;;;1.03;;
17384;SDS011;8810;48.680;8.894;2022-11-20T13:00:50;2.20;;;0.80;;
17384;SDS011;8810;48.680;8.894;2022-11-20T13:03:27;2.27;;;0.50;;
17384;SDS011;8810;48.680;8.894;2022-11-20T13:06:05;2.63;;;0.60;;
17384;SDS011;8810;48.680;8.894;2022-11-20T13:08:45;1.33;;;0.60;;
17384;SDS011;8810;48.680;8.894;2022-11-20T13:11:18;1.07;;;0.60;;
17384;SDS011;8810;48.680;8.894;2022-11-20T13:14:02;1.27;;;0.53;;
17384;SDS011;8810;48.680;8.894;2022-11-20T13:16:38;1.20;;;0.60;;
17384;SDS011;8810;48.680;8.894;2022-11-20T13:19:13;2.43;;;0.67;;
17384;SDS011;8810;48.680;8.894;2022-11-20T13:21:43;1.00;;;0.60;;
17384;SDS011;8810;48.680;8.894;2022-11-20T13:24:20;1.27;;;0.80;;
17384;SDS011;8810;48.680;8.894;2022-11-20T13:27:02;2.53;;;1.27;;
17384;SDS011;8810;48.680;8.894;2022-11-20T13:29:31;1.53;;;0.70;;
17384;SDS011;8810;48.680;8.894;2022-11-20T13:32:04;1.73;;;0.50;;
17384;SDS011;8810;48.680;8.894;2022-11-20T13:34:33;1.37;;;0.50;;
17384;SDS011;8810;48.680;8.894;2022-11-20T13:37:01;1.23;;;0.53;;
17384;SDS011;8810;48.680;8.894;2022-11-20T13:39:29;2.17;;;0.70;;
17384;SDS011;8810;48.680;8.894;2022-11-20T13:41:58;0.70;;;0.60;;
17384;SDS011;8810;48.680;8.894;2022-11-20T13:44:27;1.53;;;0.67;;
17384;SDS011;8810;48.680;8.894;2022-11-20T13:47:00;2.63;;;0.80;;
17384;SDS011;8810;48.680;8.894;2022-11-20T13:49:29;2.17;;;0.70;;
17384;SDS011;8810;48.680;8.894;2022-11-20T13:57:48;2.83;;;0.70;;
17384;SDS011;8810;48.680;8.894;2022-11-20T14:00:33;1.07;;;0.80;;
17384;SDS011;8810;48.680;8.894;2022-11-20T14:03:14;1.43;;;0.73;;
17384;SDS011;8810;48.680;8.894;2022-11-20T14:05:49;2.20;;;0.90;;
17384;SDS011;8810;48.680;8.894;2022-11-20T14:08:21;3.03;;;0.90;;
17384;SDS011;8810;48.680;8.894;2022-11-20T14:11:02;2.63;;;0.80;;
17384;SDS011;8810;48.680;8.894;2022-11-20T14:13:30;1.60;;;0.60;;
17384;SDS011;8810;48.680;8.894;2022-11-20T14:15:57;2.67;;;0.80;;
17384;SDS011;8810;48.680;8.894;2022-11-20T14:18:25;2.67;;;0.80;;
17384;SDS011;8810;48.680;8.894;2022-11-20T14:20:54;3.07;;;0.70;;
17384;SDS011;8810;48.680;8.894;2022-11-20T14:23:25;1.33;;;0.73;;
17384;SDS011;8810;48.680;8.894;2022-11-20T14:25:52;3.90;;;0.90;;
17384;SDS011;8810;48.680;8.894;2022-11-20T14:28:21;2.80;;;1.00;;
17384;SDS011;8810;48.680;8.894;2022-11-20T14:30:52;2.80;;;0.70;;
17384;SDS011;8810;48.680;8.894;2022-11-20T14:33:22;5.90;;;1.03;;
17384;SDS011;8810;48.680;8.894;2022-11-20T14:35:51;3.10;;;0.70;;
17384;SDS011;8810;48.680;8.894;2022-11-20T14:38:24;2.83;;;0.73;;
17384;SDS011;8810;48.680;8.894;2022-11-20T14:40:52;1.50;;;0.80;;
17384;SDS011;8810;48.680;8.894;2022-11-20T14:43:23;4.70;;;0.80;;
17384;SDS011;8810;48.680;8.894;2022-11-20T14:45:58;3.07;;;0.93;;
17384;SDS011;8810;48.680;8.894;2022-11-20T14:48:28;2.03;;;1.10;;
17384;SDS011;8810;48.680;8.894;2022-11-20T14:50:57;1.60;;;1.30;;
17384;SDS011;8810;48.680;8.894;2022-11-20T14:53:25;1.73;;;1.00;;
17384;SDS011;8810;48.680;8.894;2022-11-20T14:55:56;2.40;;;0.80;;
17384;SDS011;8810;48.680;8.894;2022-11-20T14:58:25;1.53;;;0.63;;
17384;SDS011;8810;48.680;8.894;2022-11-20T15:00:54;3.80;;;0.87;;
17384;SDS011;8810;48.680;8.894;2022-11-20T15:03:22;3.13;;;0.80;;
17384;SDS011;8810;48.680;8.894;2022-11-20T15:05:56;1.33;;;0.83;;
17384;SDS011;8810;48.680;8.894;2022-11-20T15:08:23;2.10;;;1.10;;
17384;SDS011;8810;48.680;8.894;2022-11-20T15:10:51;2.00;;;0.97;;
17384;SDS011;8810;48.680;8.894;2022-11-20T15:13:20;2.20;;;0.80;;
17384;SDS011;8810;48.680;8.894;2022-11-20T15:15:52;0.80;;;0.70;;
17384;SDS011;8810;48.680;8.894;2022-11-20T15:18:21;2.60;;;1.00;;
17384;SDS011;8810;48.680;8.894;2022-11-20T15:20:50;2.47;;;0.87;;
17384;SDS011;8810;48.680;8.894;2022-11-20T15:23:18;3.67;;;0.90;;
17384;SDS011;8810;48.680;8.894;2022-11-20T15:25:45;2.10;;;1.00;;
17384;SDS011;8810;48.680;8.894;2022-11-20T15:28:16;3.07;;;0.97;;
17384;SDS011;8810;48.680;8.894;2022-11-20T15:30:44;1.53;;;1.03;;
17384;SDS011;8810;48.680;8.894;2022-11-20T15:33:11;2.87;;;1.10;;
17384;SDS011;8810;48.680;8.894;2022-11-20T15:35:39;1.60;;;1.00;;